sensor_id;sensor_type;location;lat;lon;timestamp;P1;durP1;ratioP1;P2;durP2;ratioP2
5939;SDS011;2995;-31.998;115.906;2024-01-15T00:01:11;21.67;;;8.13;;
5939;SDS011;2995;-31.998;115.906;2024-01-15T00:03:43;22.93;;;8.73;;
5939;SDS011;2995;-31.998;115.906;2024-01-15T00:06:14;31.00;;;9.60;;
5939;SDS011;2995;-31.998;115.906;2024-01-15T00:08:45;22.53;;;7.93;;
5939;SDS011;2995;-31.998;115.906;2024-01-15T00:11:16;24.47;;;8.67;;
5939;SDS011;2995;-31.998;115.906;2024-01-15T00:13:50;26.20;;;8.33;;
5939;SDS011;2995;-31.998;115.906;2024-01-15T00:16:21;20.97;;;7.20;;
5939;SDS011;2995;-31.998;115.906;2024-01-15T00:18:53;25.87;;;7.73;;
5939;SDS011;2995;-31.998;115.906;2024-01-15T00:21:24;21.57;;;7.90;;
5939;SDS011;2995;-31.998;115.906;2024-01-15T00:23:55;16.37;;;7.47;;
5939;SDS011;2995;-31.998;115.906;2024-01-15T00:26:27;21.00;;;8.10;;
5939;SDS011;2995;-31.998;115.906;2024-01-15T00:29:00;20.23;;;7.30;;
5939;SDS011;2995;-31.998;115.906;2024-01-15T00:31:32;15.03;;;6.37;;
5939;SDS011;2995;-31.998;115.906;2024-01-15T00:34:03;20.07;;;7.30;;
5939;SDS011;2995;-31.998;115.906;2024-01-15T00:36:34;22.47;;;7.83;;
5939;SDS011;2995;-31.998;115.906;2024-01-15T00:39:06;22.23;;;8.10;;
5939;SDS011;2995;-31.998;115.906;2024-01-15T00:41:37;23.27;;;9.00;;
5939;SDS011;2995;-31.998;115.906;2024-01-15T00:44:10;22.73;;;8.57;;
5939;SDS011;2995;-31.998;115.906;2024-01-15T00:46:42;18.03;;;8.60;;
5939;SDS011;2995;-31.998;115.906;2024-01-15T00:49:14;19.00;;;7.23;;
5939;SDS011;2995;-31.998;115.906;2024-01-15T00:51:46;18.97;;;7.50;;
5939;SDS011;2995;-31.998;115.906;2024-01-15T00:54:18;19.43;;;7.70;;
5939;SDS011;2995;-31.998;115.906;2024-01-15T00:56:49;18.77;;;8.70;;
5939;SDS011;2995;-31.998;115.906;2024-01-15T00:59:23;21.80;;;7.60;;
5939;SDS011;2995;-31.998;115.906;2024-01-15T01:01:54;18.80;;;7.30;;
5939;SDS011;2995;-31.998;115.906;2024-01-15T01:04:25;18.60;;;7.53;;
5939;SDS011;2995;-31.998;115.906;2024-01-15T01:06:57;20.93;;;6.97;;
5939;SDS011;2995;-31.998;115.906;2024-01-15T01:09:28;19.30;;;6.40;;
5939;SDS011;2995;-31.998;115.906;2024-01-15T01:11:59;18.23;;;7.43;;
5939;SDS011;2995;-31.998;115.906;2024-01-15T01:14:32;18.67;;;6.80;;
5939;SDS011;2995;-31.998;115.906;2024-01-15T01:17:04;16.77;;;6.57;;
5939;SDS011;2995;-31.998;115.906;2024-01-15T01:19:35;18.00;;;7.03;;
5939;SDS011;2995;-31.998;115.906;2024-01-15T01:22:06;15.10;;;6.03;;
5939;SDS011;2995;-31.998;115.906;2024-01-15T01:24:37;15.93;;;6.93;;
5939;SDS011;2995;-31.998;115.906;2024-01-15T01:27:08;22.30;;;7.37;;
5939;SDS011;2995;-31.998;115.906;2024-01-15T01:29:42;20.57;;;7.57;;
5939;SDS011;2995;-31.998;115.906;2024-01-15T01:32:13;16.40;;;7.07;;
5939;SDS011;2995;-31.998;115.906;2024-01-15T01:34:44;17.10;;;6.63;;
5939;SDS011;2995;-31.998;115.906;2024-01-15T01:37:16;18.63;;;7.57;;
5939;SDS011;2995;-31.998;115.906;2024-01-15T01:39:47;15.43;;;6.07;;
5939;SDS011;2995;-31.998;115.906;2024-01-15T01:42:18;15.50;;;7.10;;
5939;SDS011;2995;-31.998;115.906;2024-01-15T01:44:51;19.70;;;6.80;;
5939;SDS011;2995;-31.998;115.906;2024-01-15T01:47:23;17.33;;;7.53;;
5939;SDS011;2995;-31.998;115.906;2024-01-15T01:49:54;16.37;;;6.40;;
5939;SDS011;2995;-31.998;115.906;2024-01-15T01:52:26;16.83;;;6.43;;
5939;SDS011;2995;-31.998;115.906;2024-01-15T01:54:58;16.00;;;7.30;;
5939;SDS011;2995;-31.998;115.906;2024-01-15T01:57:31;13.47;;;6.47;;
5939;SDS011;2995;-31.998;115.906;2024-01-15T02:00:06;17.80;;;7.50;;
5939;SDS011;2995;-31.998;115.906;2024-01-15T02:02:38;14.63;;;6.93;;
5939;SDS011;2995;-31.998;115.906;2024-01-15T02:05:10;17.60;;;6.27;;
5939;SDS011;2995;-31.998;115.906;2024-01-15T02:07:43;15.07;;;6.50;;
5939;SDS011;2995;-31.998;115.906;2024-01-15T02:10:14;18.50;;;6.80;;
5939;SDS011;2995;-31.998;115.906;2024-01-15T02:12:46;18.80;;;7.13;;
5939;SDS011;2995;-31.998;115.906;2024-01-15T02:15:19;13.40;;;5.63;;
5939;SDS011;2995;-31.998;115.906;2024-01-15T02:17:59;15.53;;;5.80;;
5939;SDS011;2995;-31.998;115.906;2024-01-15T02:20:33;11.67;;;5.60;;
5939;SDS011;2995;-31.998;115.906;2024-01-15T02:23:09;13.53;;;5.40;;
5939;SDS011;2995;-31.998;115.906;2024-01-15T02:25:41;13.67;;;5.90;;
5939;SDS011;2995;-31.998;115.906;2024-01-15T02:28:14;12.80;;;5.10;;
5939;SDS011;2995;-31.998;115.906;2024-01-15T02:30:46;13.03;;;4.73;;
5939;SDS011;2995;-31.998;115.906;2024-01-15T02:33:17;14.63;;;6.00;;
5939;SDS011;2995;-31.998;115.906;2024-01-15T02:35:49;14.50;;;5.07;;
5939;SDS011;2995;-31.998;115.906;2024-01-15T02:38:24;11.70;;;5.10;;
5939;SDS011;2995;-31.998;115.906;2024-01-15T02:40:55;12.93;;;4.57;;
5939;SDS011;2995;-31.998;115.906;2024-01-15T02:43:27;15.37;;;5.00;;
5939;SDS011;2995;-31.998;115.906;2024-01-15T02:45:59;13.90;;;5.60;;
5939;SDS011;2995;-31.998;115.906;2024-01-15T02:48:30;9.60;;;4.53;;
5939;SDS011;2995;-31.998;115.906;2024-01-15T02:51:02;15.53;;;4.57;;
5939;SDS011;2995;-31.998;115.906;2024-01-15T02:53:37;14.10;;;5.30;;
5939;SDS011;2995;-31.998;115.906;2024-01-15T02:56:08;13.63;;;4.70;;
5939;SDS011;2995;-31.998;115.906;2024-01-15T02:58:39;12.37;;;5.00;;
5939;SDS011;2995;-31.998;115.906;2024-01-15T03:01:11;14.00;;;4.50;;
5939;SDS011;2995;-31.998;115.906;2024-01-15T03:03:42;13.80;;;5.37;;
5939;SDS011;2995;-31.998;115.906;2024-01-15T03:06:13;11.50;;;4.30;;
5939;SDS011;2995;-31.998;115.906;2024-01-15T03:08:46;8.90;;;4.40;;
5939;SDS011;2995;-31.998;115.906;2024-01-15T03:11:17;15.40;;;4.70;;
5939;SDS011;2995;-31.998;115.906;2024-01-15T03:13:49;9.63;;;4.27;;
5939;SDS011;2995;-31.998;115.906;2024-01-15T03:16:20;6.50;;;3.17;;
5939;SDS011;2995;-31.998;115.906;2024-01-15T03:18:52;7.57;;;3.10;;
5939;SDS011;2995;-31.998;115.906;2024-01-15T03:21:23;11.53;;;5.53;;
5939;SDS011;2995;-31.998;115.906;2024-01-15T03:23:56;15.87;;;5.80;;
5939;SDS011;2995;-31.998;115.906;2024-01-15T03:26:28;12.40;;;5.20;;
5939;SDS011;2995;-31.998;115.906;2024-01-15T03:28:59;12.60;;;5.20;;
5939;SDS011;2995;-31.998;115.906;2024-01-15T03:31:31;13.47;;;5.47;;
5939;SDS011;2995;-31.998;115.906;2024-01-15T03:34:02;14.50;;;5.83;;
5939;SDS011;2995;-31.998;115.906;2024-01-15T03:36:33;14.63;;;5.87;;
5939;SDS011;2995;-31.998;115.906;2024-01-15T03:39:07;14.17;;;6.10;;
5939;SDS011;2995;-31.998;115.906;2024-01-15T03:41:38;14.13;;;5.83;;
5939;SDS011;2995;-31.998;115.906;2024-01-15T03:44:09;13.60;;;5.37;;
5939;SDS011;2995;-31.998;115.906;2024-01-15T03:46:40;14.30;;;5.33;;
5939;SDS011;2995;-31.998;115.906;2024-01-15T03:49:12;16.07;;;6.07;;
5939;SDS011;2995;-31.998;115.906;2024-01-15T03:51:43;17.17;;;5.97;;
5939;SDS011;2995;-31.998;115.906;2024-01-15T03:54:17;14.80;;;5.70;;
5939;SDS011;2995;-31.998;115.906;2024-01-15T03:56:48;19.20;;;6.10;;
5939;SDS011;2995;-31.998;115.906;2024-01-15T03:59:19;14.73;;;5.67;;
5939;SDS011;2995;-31.998;115.906;2024-01-15T04:01:50;18.13;;;5.80;;
5939;SDS011;2995;-31.998;115.906;2024-01-15T04:04:22;14.50;;;5.57;;
5939;SDS011;2995;-31.998;115.906;2024-01-15T04:06:53;15.00;;;5.90;;
5939;SDS011;2995;-31.998;115.906;2024-01-15T04:09:26;13.50;;;5.70;;
5939;SDS011;2995;-31.998;115.906;2024-01-15T04:11:57;12.97;;;6.37;;
5939;SDS011;2995;-31.998;115.906;2024-01-15T04:14:29;13.00;;;5.40;;
5939;SDS011;2995;-31.998;115.906;2024-01-15T04:17:00;13.60;;;5.37;;
5939;SDS011;2995;-31.998;115.906;2024-01-15T04:19:32;15.83;;;6.70;;
5939;SDS011;2995;-31.998;115.906;2024-01-15T04:22:04;19.23;;;6.57;;
5939;SDS011;2995;-31.998;115.906;2024-01-15T04:24:37;17.60;;;6.70;;
5939;SDS011;2995;-31.998;115.906;2024-01-15T04:27:08;13.03;;;5.77;;
5939;SDS011;2995;-31.998;115.906;2024-01-15T04:29:39;12.80;;;5.30;;
5939;SDS011;2995;-31.998;115.906;2024-01-15T04:32:11;9.33;;;4.57;;
5939;SDS011;2995;-31.998;115.906;2024-01-15T04:34:42;17.37;;;6.73;;
5939;SDS011;2995;-31.998;115.906;2024-01-15T04:37:14;15.57;;;6.13;;
5939;SDS011;2995;-31.998;115.906;2024-01-15T04:39:47;15.20;;;5.97;;
5939;SDS011;2995;-31.998;115.906;2024-01-15T04:42:21;13.57;;;5.00;;
5939;SDS011;2995;-31.998;115.906;2024-01-15T04:44:52;14.70;;;6.10;;
5939;SDS011;2995;-31.998;115.906;2024-01-15T04:47:23;11.13;;;5.10;;
5939;SDS011;2995;-31.998;115.906;2024-01-15T04:49:55;17.57;;;5.40;;
5939;SDS011;2995;-31.998;115.906;2024-01-15T04:52:26;15.30;;;5.27;;
5939;SDS011;2995;-31.998;115.906;2024-01-15T04:54:59;13.90;;;6.03;;
5939;SDS011;2995;-31.998;115.906;2024-01-15T04:57:30;13.00;;;5.97;;
5939;SDS011;2995;-31.998;115.906;2024-01-15T05:00:01;18.47;;;5.87;;
5939;SDS011;2995;-31.998;115.906;2024-01-15T05:02:33;15.27;;;5.70;;
5939;SDS011;2995;-31.998;115.906;2024-01-15T05:05:05;15.87;;;5.63;;
5939;SDS011;2995;-31.998;115.906;2024-01-15T05:07:36;20.00;;;5.77;;
5939;SDS011;2995;-31.998;115.906;2024-01-15T05:10:10;15.27;;;5.53;;
5939;SDS011;2995;-31.998;115.906;2024-01-15T05:12:41;18.57;;;6.30;;
5939;SDS011;2995;-31.998;115.906;2024-01-15T05:15:12;14.90;;;5.63;;
5939;SDS011;2995;-31.998;115.906;2024-01-15T05:17:44;18.13;;;5.77;;
5939;SDS011;2995;-31.998;115.906;2024-01-15T05:20:15;13.47;;;5.20;;
5939;SDS011;2995;-31.998;115.906;2024-01-15T05:22:46;10.83;;;5.33;;
5939;SDS011;2995;-31.998;115.906;2024-01-15T05:25:19;11.90;;;4.60;;
5939;SDS011;2995;-31.998;115.906;2024-01-15T05:27:51;19.03;;;6.50;;
5939;SDS011;2995;-31.998;115.906;2024-01-15T05:30:22;19.10;;;6.40;;
5939;SDS011;2995;-31.998;115.906;2024-01-15T05:32:53;21.00;;;6.40;;
5939;SDS011;2995;-31.998;115.906;2024-01-15T05:35:26;22.83;;;7.17;;
5939;SDS011;2995;-31.998;115.906;2024-01-15T05:37:57;18.83;;;6.00;;
5939;SDS011;2995;-31.998;115.906;2024-01-15T05:40:31;16.00;;;6.40;;
5939;SDS011;2995;-31.998;115.906;2024-01-15T05:43:02;20.87;;;6.50;;
5939;SDS011;2995;-31.998;115.906;2024-01-15T05:45:34;19.43;;;7.20;;
5939;SDS011;2995;-31.998;115.906;2024-01-15T05:48:07;21.33;;;6.43;;
5939;SDS011;2995;-31.998;115.906;2024-01-15T05:50:38;21.30;;;7.10;;
5939;SDS011;2995;-31.998;115.906;2024-01-15T05:53:10;18.97;;;5.90;;
5939;SDS011;2995;-31.998;115.906;2024-01-15T05:55:44;20.43;;;6.97;;
5939;SDS011;2995;-31.998;115.906;2024-01-15T05:58:15;14.87;;;5.93;;
5939;SDS011;2995;-31.998;115.906;2024-01-15T06:00:46;19.80;;;7.07;;
5939;SDS011;2995;-31.998;115.906;2024-01-15T06:03:17;21.23;;;6.70;;
5939;SDS011;2995;-31.998;115.906;2024-01-15T06:05:48;18.60;;;6.47;;
5939;SDS011;2995;-31.998;115.906;2024-01-15T06:08:20;16.27;;;6.83;;
5939;SDS011;2995;-31.998;115.906;2024-01-15T06:10:55;20.43;;;6.60;;
5939;SDS011;2995;-31.998;115.906;2024-01-15T06:13:27;18.37;;;6.63;;
5939;SDS011;2995;-31.998;115.906;2024-01-15T06:15:58;20.77;;;7.50;;
5939;SDS011;2995;-31.998;115.906;2024-01-15T06:18:29;23.53;;;7.20;;
5939;SDS011;2995;-31.998;115.906;2024-01-15T06:21:00;20.10;;;6.77;;
5939;SDS011;2995;-31.998;115.906;2024-01-15T06:23:31;22.13;;;7.40;;
5939;SDS011;2995;-31.998;115.906;2024-01-15T06:26:05;21.23;;;7.13;;
5939;SDS011;2995;-31.998;115.906;2024-01-15T06:28:36;25.60;;;8.10;;
5939;SDS011;2995;-31.998;115.906;2024-01-15T06:31:07;18.93;;;6.60;;
5939;SDS011;2995;-31.998;115.906;2024-01-15T06:33:38;22.77;;;7.10;;
5939;SDS011;2995;-31.998;115.906;2024-01-15T06:36:11;25.27;;;8.40;;
5939;SDS011;2995;-31.998;115.906;2024-01-15T06:38:43;27.17;;;6.70;;
5939;SDS011;2995;-31.998;115.906;2024-01-15T06:41:16;23.23;;;7.50;;
5939;SDS011;2995;-31.998;115.906;2024-01-15T06:43:48;22.50;;;6.73;;
5939;SDS011;2995;-31.998;115.906;2024-01-15T06:46:20;18.70;;;6.57;;
5939;SDS011;2995;-31.998;115.906;2024-01-15T06:48:51;30.27;;;7.37;;
5939;SDS011;2995;-31.998;115.906;2024-01-15T06:51:22;21.73;;;7.23;;
5939;SDS011;2995;-31.998;115.906;2024-01-15T06:53:54;24.77;;;7.80;;
5939;SDS011;2995;-31.998;115.906;2024-01-15T06:56:27;23.67;;;7.63;;
5939;SDS011;2995;-31.998;115.906;2024-01-15T06:58:58;27.87;;;8.30;;
5939;SDS011;2995;-31.998;115.906;2024-01-15T07:01:30;21.63;;;7.27;;
5939;SDS011;2995;-31.998;115.906;2024-01-15T07:04:01;27.57;;;7.83;;
5939;SDS011;2995;-31.998;115.906;2024-01-15T07:06:32;21.73;;;7.80;;
5939;SDS011;2995;-31.998;115.906;2024-01-15T07:09:03;19.10;;;6.97;;
5939;SDS011;2995;-31.998;115.906;2024-01-15T07:11:37;24.73;;;7.47;;
5939;SDS011;2995;-31.998;115.906;2024-01-15T07:14:13;26.43;;;7.03;;
5939;SDS011;2995;-31.998;115.906;2024-01-15T07:16:44;24.07;;;7.40;;
5939;SDS011;2995;-31.998;115.906;2024-01-15T07:19:16;27.73;;;8.17;;
5939;SDS011;2995;-31.998;115.906;2024-01-15T07:21:47;22.93;;;8.03;;
5939;SDS011;2995;-31.998;115.906;2024-01-15T07:24:18;29.73;;;7.73;;
5939;SDS011;2995;-31.998;115.906;2024-01-15T07:26:51;22.77;;;6.97;;
5939;SDS011;2995;-31.998;115.906;2024-01-15T07:29:22;25.33;;;8.17;;
5939;SDS011;2995;-31.998;115.906;2024-01-15T07:31:54;22.17;;;8.00;;
5939;SDS011;2995;-31.998;115.906;2024-01-15T07:34:25;26.63;;;8.17;;
5939;SDS011;2995;-31.998;115.906;2024-01-15T07:36:56;18.40;;;7.37;;
5939;SDS011;2995;-31.998;115.906;2024-01-15T07:39:28;21.80;;;6.90;;
5939;SDS011;2995;-31.998;115.906;2024-01-15T07:42:01;26.20;;;7.20;;
5939;SDS011;2995;-31.998;115.906;2024-01-15T07:44:32;24.83;;;8.37;;
5939;SDS011;2995;-31.998;115.906;2024-01-15T07:47:04;19.60;;;6.40;;
5939;SDS011;2995;-31.998;115.906;2024-01-15T07:49:35;23.13;;;7.37;;
5939;SDS011;2995;-31.998;115.906;2024-01-15T07:52:07;19.33;;;6.67;;
5939;SDS011;2995;-31.998;115.906;2024-01-15T07:54:39;16.00;;;6.90;;
5939;SDS011;2995;-31.998;115.906;2024-01-15T07:57:12;21.30;;;7.10;;
5939;SDS011;2995;-31.998;115.906;2024-01-15T07:59:44;19.97;;;7.33;;
5939;SDS011;2995;-31.998;115.906;2024-01-15T08:02:15;18.40;;;6.47;;
5939;SDS011;2995;-31.998;115.906;2024-01-15T08:04:47;14.97;;;5.77;;
5939;SDS011;2995;-31.998;115.906;2024-01-15T08:07:18;19.43;;;6.73;;
5939;SDS011;2995;-31.998;115.906;2024-01-15T08:09:49;18.77;;;6.83;;
5939;SDS011;2995;-31.998;115.906;2024-01-15T08:12:23;16.87;;;6.57;;
5939;SDS011;2995;-31.998;115.906;2024-01-15T08:14:54;20.77;;;6.57;;
5939;SDS011;2995;-31.998;115.906;2024-01-15T08:17:25;22.93;;;6.90;;
5939;SDS011;2995;-31.998;115.906;2024-01-15T08:19:57;22.90;;;6.83;;
5939;SDS011;2995;-31.998;115.906;2024-01-15T08:22:29;20.30;;;7.07;;
5939;SDS011;2995;-31.998;115.906;2024-01-15T08:25:00;21.87;;;6.90;;
5939;SDS011;2995;-31.998;115.906;2024-01-15T08:27:33;20.70;;;7.50;;
5939;SDS011;2995;-31.998;115.906;2024-01-15T08:30:04;17.73;;;6.30;;
5939;SDS011;2995;-31.998;115.906;2024-01-15T08:32:36;19.57;;;7.03;;
5939;SDS011;2995;-31.998;115.906;2024-01-15T08:35:08;18.13;;;6.57;;
5939;SDS011;2995;-31.998;115.906;2024-01-15T08:37:40;25.43;;;7.17;;
5939;SDS011;2995;-31.998;115.906;2024-01-15T08:40:11;20.73;;;7.30;;
5939;SDS011;2995;-31.998;115.906;2024-01-15T08:42:44;14.37;;;5.97;;
5939;SDS011;2995;-31.998;115.906;2024-01-15T08:45:16;17.83;;;6.50;;
5939;SDS011;2995;-31.998;115.906;2024-01-15T08:47:48;15.43;;;6.53;;
5939;SDS011;2995;-31.998;115.906;2024-01-15T08:50:19;20.80;;;6.57;;
5939;SDS011;2995;-31.998;115.906;2024-01-15T08:52:51;26.90;;;8.00;;
5939;SDS011;2995;-31.998;115.906;2024-01-15T08:55:22;22.40;;;7.20;;
5939;SDS011;2995;-31.998;115.906;2024-01-15T08:57:55;19.40;;;5.63;;
5939;SDS011;2995;-31.998;115.906;2024-01-15T09:00:26;29.50;;;7.10;;
5939;SDS011;2995;-31.998;115.906;2024-01-15T09:02:57;16.37;;;6.53;;
5939;SDS011;2995;-31.998;115.906;2024-01-15T09:05:29;21.90;;;7.17;;
5939;SDS011;2995;-31.998;115.906;2024-01-15T09:08:00;17.20;;;6.70;;
5939;SDS011;2995;-31.998;115.906;2024-01-15T09:10:31;20.73;;;6.17;;
5939;SDS011;2995;-31.998;115.906;2024-01-15T09:13:05;21.83;;;7.10;;
5939;SDS011;2995;-31.998;115.906;2024-01-15T09:15:36;22.00;;;6.90;;
5939;SDS011;2995;-31.998;115.906;2024-01-15T09:18:07;23.43;;;6.13;;
5939;SDS011;2995;-31.998;115.906;2024-01-15T09:20:38;23.83;;;7.50;;
5939;SDS011;2995;-31.998;115.906;2024-01-15T09:23:09;24.67;;;7.23;;
5939;SDS011;2995;-31.998;115.906;2024-01-15T09:25:41;25.23;;;8.10;;
5939;SDS011;2995;-31.998;115.906;2024-01-15T09:28:14;20.93;;;7.47;;
5939;SDS011;2995;-31.998;115.906;2024-01-15T09:30:45;18.97;;;7.83;;
5939;SDS011;2995;-31.998;115.906;2024-01-15T09:33:16;22.23;;;6.37;;
5939;SDS011;2995;-31.998;115.906;2024-01-15T09:35:48;22.37;;;7.30;;
5939;SDS011;2995;-31.998;115.906;2024-01-15T09:38:19;15.73;;;7.10;;
5939;SDS011;2995;-31.998;115.906;2024-01-15T09:40:51;21.20;;;8.03;;
5939;SDS011;2995;-31.998;115.906;2024-01-15T09:43:24;23.80;;;7.43;;
5939;SDS011;2995;-31.998;115.906;2024-01-15T09:45:56;23.27;;;7.50;;
5939;SDS011;2995;-31.998;115.906;2024-01-15T09:48:28;23.07;;;7.50;;
5939;SDS011;2995;-31.998;115.906;2024-01-15T09:51:00;23.33;;;7.13;;
5939;SDS011;2995;-31.998;115.906;2024-01-15T09:53:32;21.10;;;8.03;;
5939;SDS011;2995;-31.998;115.906;2024-01-15T09:56:05;33.50;;;9.13;;
5939;SDS011;2995;-31.998;115.906;2024-01-15T09:58:39;30.90;;;8.30;;
5939;SDS011;2995;-31.998;115.906;2024-01-15T10:01:10;24.33;;;7.90;;
5939;SDS011;2995;-31.998;115.906;2024-01-15T10:03:43;23.53;;;7.70;;
5939;SDS011;2995;-31.998;115.906;2024-01-15T10:06:15;21.13;;;7.23;;
5939;SDS011;2995;-31.998;115.906;2024-01-15T10:08:47;24.23;;;7.70;;
5939;SDS011;2995;-31.998;115.906;2024-01-15T10:11:20;24.50;;;8.20;;
5939;SDS011;2995;-31.998;115.906;2024-01-15T10:13:53;20.23;;;7.13;;
5939;SDS011;2995;-31.998;115.906;2024-01-15T10:16:24;27.10;;;7.00;;
5939;SDS011;2995;-31.998;115.906;2024-01-15T10:18:56;23.30;;;8.70;;
5939;SDS011;2995;-31.998;115.906;2024-01-15T10:21:27;30.33;;;7.63;;
5939;SDS011;2995;-31.998;115.906;2024-01-15T10:24:01;25.17;;;7.20;;
5939;SDS011;2995;-31.998;115.906;2024-01-15T10:26:33;20.43;;;7.43;;
5939;SDS011;2995;-31.998;115.906;2024-01-15T10:29:06;19.43;;;7.03;;
5939;SDS011;2995;-31.998;115.906;2024-01-15T10:31:37;28.27;;;7.90;;
5939;SDS011;2995;-31.998;115.906;2024-01-15T10:34:11;24.80;;;6.73;;
5939;SDS011;2995;-31.998;115.906;2024-01-15T10:36:45;25.33;;;7.00;;
5939;SDS011;2995;-31.998;115.906;2024-01-15T10:39:21;18.70;;;6.57;;
5939;SDS011;2995;-31.998;115.906;2024-01-15T10:41:53;20.00;;;6.50;;
5939;SDS011;2995;-31.998;115.906;2024-01-15T10:44:26;21.77;;;7.63;;
5939;SDS011;2995;-31.998;115.906;2024-01-15T10:46:58;16.30;;;6.70;;
5939;SDS011;2995;-31.998;115.906;2024-01-15T10:49:29;28.40;;;7.70;;
5939;SDS011;2995;-31.998;115.906;2024-01-15T10:52:01;19.80;;;7.17;;
5939;SDS011;2995;-31.998;115.906;2024-01-15T10:54:32;16.37;;;6.00;;
5939;SDS011;2995;-31.998;115.906;2024-01-15T10:57:06;20.53;;;6.80;;
5939;SDS011;2995;-31.998;115.906;2024-01-15T10:59:40;24.97;;;7.50;;
5939;SDS011;2995;-31.998;115.906;2024-01-15T11:02:11;22.27;;;6.63;;
5939;SDS011;2995;-31.998;115.906;2024-01-15T11:04:43;26.07;;;7.07;;
5939;SDS011;2995;-31.998;115.906;2024-01-15T11:07:14;27.67;;;7.80;;
5939;SDS011;2995;-31.998;115.906;2024-01-15T11:09:46;29.80;;;8.10;;
5939;SDS011;2995;-31.998;115.906;2024-01-15T11:12:17;27.10;;;7.70;;
5939;SDS011;2995;-31.998;115.906;2024-01-15T11:14:50;30.73;;;8.97;;
5939;SDS011;2995;-31.998;115.906;2024-01-15T11:17:31;23.73;;;7.43;;
5939;SDS011;2995;-31.998;115.906;2024-01-15T11:20:31;32.17;;;7.97;;
5939;SDS011;2995;-31.998;115.906;2024-01-15T11:23:03;28.50;;;8.37;;
5939;SDS011;2995;-31.998;115.906;2024-01-15T11:25:35;24.83;;;7.97;;
5939;SDS011;2995;-31.998;115.906;2024-01-15T11:28:07;26.47;;;8.00;;
5939;SDS011;2995;-31.998;115.906;2024-01-15T11:30:40;29.67;;;8.70;;
5939;SDS011;2995;-31.998;115.906;2024-01-15T11:33:24;25.53;;;8.33;;
5939;SDS011;2995;-31.998;115.906;2024-01-15T11:36:03;26.43;;;9.20;;
5939;SDS011;2995;-31.998;115.906;2024-01-15T11:38:34;30.37;;;9.07;;
5939;SDS011;2995;-31.998;115.906;2024-01-15T11:41:13;29.07;;;8.53;;
5939;SDS011;2995;-31.998;115.906;2024-01-15T11:43:44;41.27;;;9.47;;
5939;SDS011;2995;-31.998;115.906;2024-01-15T11:46:18;32.00;;;8.70;;
5939;SDS011;2995;-31.998;115.906;2024-01-15T11:48:49;29.60;;;10.17;;
5939;SDS011;2995;-31.998;115.906;2024-01-15T11:51:33;27.97;;;8.43;;
5939;SDS011;2995;-31.998;115.906;2024-01-15T11:54:05;29.73;;;8.90;;
5939;SDS011;2995;-31.998;115.906;2024-01-15T11:56:39;29.93;;;8.93;;
5939;SDS011;2995;-31.998;115.906;2024-01-15T11:59:11;25.07;;;8.03;;
5939;SDS011;2995;-31.998;115.906;2024-01-15T12:01:44;32.37;;;9.47;;
5939;SDS011;2995;-31.998;115.906;2024-01-15T12:04:15;28.93;;;8.23;;
5939;SDS011;2995;-31.998;115.906;2024-01-15T12:06:47;31.87;;;9.13;;
5939;SDS011;2995;-31.998;115.906;2024-01-15T12:09:19;32.20;;;9.00;;
5939;SDS011;2995;-31.998;115.906;2024-01-15T12:11:57;25.93;;;8.10;;
5939;SDS011;2995;-31.998;115.906;2024-01-15T12:14:33;25.67;;;8.13;;
5939;SDS011;2995;-31.998;115.906;2024-01-15T12:17:07;26.60;;;8.43;;
5939;SDS011;2995;-31.998;115.906;2024-01-15T12:19:38;27.07;;;8.17;;
5939;SDS011;2995;-31.998;115.906;2024-01-15T12:22:09;28.63;;;9.17;;
5939;SDS011;2995;-31.998;115.906;2024-01-15T12:24:41;25.40;;;8.23;;
5939;SDS011;2995;-31.998;115.906;2024-01-15T12:27:13;35.13;;;10.60;;
5939;SDS011;2995;-31.998;115.906;2024-01-15T12:29:44;28.10;;;9.23;;
5939;SDS011;2995;-31.998;115.906;2024-01-15T12:32:17;25.60;;;8.57;;
5939;SDS011;2995;-31.998;115.906;2024-01-15T12:34:50;27.23;;;8.67;;
5939;SDS011;2995;-31.998;115.906;2024-01-15T12:37:21;27.93;;;9.33;;
5939;SDS011;2995;-31.998;115.906;2024-01-15T12:39:53;28.37;;;9.60;;
5939;SDS011;2995;-31.998;115.906;2024-01-15T12:42:25;35.03;;;9.60;;
5939;SDS011;2995;-31.998;115.906;2024-01-15T12:44:57;38.33;;;8.60;;
5939;SDS011;2995;-31.998;115.906;2024-01-15T12:47:31;27.63;;;8.63;;
5939;SDS011;2995;-31.998;115.906;2024-01-15T12:50:04;28.17;;;8.93;;
5939;SDS011;2995;-31.998;115.906;2024-01-15T12:52:37;28.40;;;7.87;;
5939;SDS011;2995;-31.998;115.906;2024-01-15T12:55:10;21.40;;;9.03;;
5939;SDS011;2995;-31.998;115.906;2024-01-15T12:57:41;30.07;;;9.43;;
5939;SDS011;2995;-31.998;115.906;2024-01-15T13:00:13;31.23;;;9.23;;
5939;SDS011;2995;-31.998;115.906;2024-01-15T13:02:47;28.87;;;8.57;;
5939;SDS011;2995;-31.998;115.906;2024-01-15T13:05:18;28.47;;;8.97;;
5939;SDS011;2995;-31.998;115.906;2024-01-15T13:07:50;29.00;;;8.57;;
5939;SDS011;2995;-31.998;115.906;2024-01-15T13:10:22;26.47;;;9.40;;
5939;SDS011;2995;-31.998;115.906;2024-01-15T13:12:56;28.70;;;9.50;;
5939;SDS011;2995;-31.998;115.906;2024-01-15T13:15:28;30.97;;;9.10;;
5939;SDS011;2995;-31.998;115.906;2024-01-15T13:18:01;30.33;;;9.47;;
5939;SDS011;2995;-31.998;115.906;2024-01-15T13:20:34;35.93;;;9.87;;
5939;SDS011;2995;-31.998;115.906;2024-01-15T13:23:06;28.97;;;9.30;;
5939;SDS011;2995;-31.998;115.906;2024-01-15T13:25:38;22.17;;;7.93;;
5939;SDS011;2995;-31.998;115.906;2024-01-15T13:28:09;36.97;;;10.60;;
5939;SDS011;2995;-31.998;115.906;2024-01-15T13:30:41;33.90;;;9.17;;
5939;SDS011;2995;-31.998;115.906;2024-01-15T13:33:14;30.37;;;9.67;;
5939;SDS011;2995;-31.998;115.906;2024-01-15T13:35:45;32.27;;;9.13;;
5939;SDS011;2995;-31.998;115.906;2024-01-15T13:38:17;34.17;;;10.17;;
5939;SDS011;2995;-31.998;115.906;2024-01-15T13:40:48;31.00;;;9.00;;
5939;SDS011;2995;-31.998;115.906;2024-01-15T13:43:23;27.60;;;8.70;;
5939;SDS011;2995;-31.998;115.906;2024-01-15T13:45:54;28.77;;;10.10;;
5939;SDS011;2995;-31.998;115.906;2024-01-15T13:48:28;30.97;;;10.43;;
5939;SDS011;2995;-31.998;115.906;2024-01-15T13:50:59;27.00;;;8.20;;
5939;SDS011;2995;-31.998;115.906;2024-01-15T13:53:30;28.30;;;8.67;;
5939;SDS011;2995;-31.998;115.906;2024-01-15T13:56:02;23.83;;;8.20;;
5939;SDS011;2995;-31.998;115.906;2024-01-15T13:58:33;27.73;;;9.07;;
5939;SDS011;2995;-31.998;115.906;2024-01-15T14:01:05;35.97;;;9.93;;
5939;SDS011;2995;-31.998;115.906;2024-01-15T14:03:39;22.70;;;8.30;;
5939;SDS011;2995;-31.998;115.906;2024-01-15T14:06:10;29.93;;;8.60;;
5939;SDS011;2995;-31.998;115.906;2024-01-15T14:08:41;38.03;;;9.77;;
5939;SDS011;2995;-31.998;115.906;2024-01-15T14:11:12;39.20;;;10.10;;
5939;SDS011;2995;-31.998;115.906;2024-01-15T14:13:43;28.97;;;8.30;;
5939;SDS011;2995;-31.998;115.906;2024-01-15T14:16:15;26.20;;;8.90;;
5939;SDS011;2995;-31.998;115.906;2024-01-15T14:18:49;32.00;;;9.70;;
5939;SDS011;2995;-31.998;115.906;2024-01-15T14:21:20;25.70;;;8.03;;
5939;SDS011;2995;-31.998;115.906;2024-01-15T14:23:51;24.77;;;7.87;;
5939;SDS011;2995;-31.998;115.906;2024-01-15T14:26:23;20.47;;;7.90;;
5939;SDS011;2995;-31.998;115.906;2024-01-15T14:28:54;36.33;;;9.53;;
5939;SDS011;2995;-31.998;115.906;2024-01-15T14:31:25;31.90;;;10.13;;
5939;SDS011;2995;-31.998;115.906;2024-01-15T14:33:58;31.20;;;11.07;;
5939;SDS011;2995;-31.998;115.906;2024-01-15T14:36:30;25.47;;;9.17;;
5939;SDS011;2995;-31.998;115.906;2024-01-15T14:39:01;30.50;;;9.27;;
5939;SDS011;2995;-31.998;115.906;2024-01-15T14:41:32;36.37;;;10.10;;
5939;SDS011;2995;-31.998;115.906;2024-01-15T14:44:03;36.33;;;9.97;;
5939;SDS011;2995;-31.998;115.906;2024-01-15T14:46:35;31.30;;;10.93;;
5939;SDS011;2995;-31.998;115.906;2024-01-15T14:49:08;34.60;;;9.33;;